AirNav   Pilot Hours Calculator
 
 1456 users online  

02KS JMJ Landing Airport
St Marys, Kansas, USA

GOING TO ST MARYS?


FAA INFORMATION EFFECTIVE 07 NOVEMBER 2019

Location

FAA Identifier: 02KS
Lat/Long: 39-13-19.9880N 096-03-18.9740W
39-13.333133N 096-03.316233W
39.2222189,-96.0552706
(estimated)
Elevation: 1170 ft. / 357 m (estimated)
Variation: 06E (1985)
From city: 2 miles N of ST MARYS, KS
Time zone: UTC -6 (UTC -5 during Daylight Saving Time)
Zip code: 66536

Airport Operations

Airport use: Private use. Permission required prior to landing
Activation date: 05/1991
Control tower: no
ARTCC: KANSAS CITY CENTER
FSS: WICHITA FLIGHT SERVICE STATION
Attendance: UNATNDD
Wind indicator: yes
Segmented circle: yes

Nearby radio navigation aids

VOR radial/distance  VOR name  Freq  Var
TOPr277/24.1TOPEKA VORTAC117.8005E
MHKr077/28.9MANHATTAN VOR/DME110.2004E

 
NDB name  Hdg/Dist  Freq  Var  ID
CAVALRY065/36.431406ECVY -.-. ...- -.--

Airport Services

Runway Information

Runway 18/36

Dimensions: 1950 x 150 ft. / 594 x 46 m
Surface: turf
Runway edge lights: medium intensity
SOLAR - CONSTANT CAPACITOR
RUNWAY 18  RUNWAY 36
Traffic pattern: leftleft

Runway 11/29

Dimensions: 1650 x 100 ft. / 503 x 30 m
Surface: turf
Runway edge lights: medium intensity
RUNWAY 11  RUNWAY 29
Traffic pattern: rightleft

Airport Ownership and Management from official FAA records

Ownership: Privately-owned
Owner: BILL & PAT LINN
28155 RYAN'S WAY ROAD
ST MARY'S, KS 66536-9763
Phone 785-437-3210
Manager: BILL & PAT LINN
28155 RYAN'S WAY ROAD
ST MARY'S, KS 66536-9763
Phone 785-437-3210

Airport Operational Statistics

Aircraft based on the field: 2
Single engine airplanes: 1
Ultralights: 1
    

Additional Remarks

ALL TRAFFIC REMAIN SOUTH OF THE RYS.
CAP ACTIVITY OCCASIONALLY FOR SAREX & MILITARY HELICOPTER FLY-INS. LIKE THIS PAST SUMMER. 2 UH-60 BLACKHAWKS PARTICIPATED & GAVE RIDES. WE GAVE THEM WRITTEN PERMISSION TO DO THIS ANYTIME THEY NEED TO.
FOR CD CTC KANSAS CITY ARTCC AT 913-254-8508.

Instrument Procedures

There are no published instrument procedures at 02KS.

Some nearby airports with instrument procedures:

KTOP - Philip Billard Municipal Airport (22 nm SE)
KFOE - Topeka Regional Airport (24 nm SE)
KMHK - Manhattan Regional Airport (29 nm W)
KFRI - Marshall Army Airfield (35 nm W)
3JC - Freeman Field Airport (38 nm W)
 
Loc | Ops | Rwys | IFR | FBO | Links
Com | Nav | Svcs | Stats | Notes

Kansas City Aviation Department
 
Area around 02KS (JMJ Landing Airport)
 
Road maps at: MapQuest Bing Google
 
Aerial photo
WARNING: Photo may not be current or correct
Aerial photo of 02KS (JMJ Landing Airport)
Do you have a better or more recent aerial photo of JMJ Landing Airport that you would like to share? If so, please send us your photo.

 
Sectional chart

 
Airport distance calculator
Flying to JMJ Landing Airport? Find the distance to fly.

From to 02KS

Sunrise and sunset
Times for 18-Nov-2019
 Local
(UTC-6)
 Zulu
(UTC)
Morning civil twilight06:4312:43
Sunrise07:1213:12
Sunset17:0723:07
Evening civil twilight17:3623:36

Current date and time
Zulu (UTC)  18-Nov-2019 16:12:55
Local (UTC-6)  18-Nov-2019 10:12:55
 
METAR
KTOP 
22nm SE 
181553Z 20006KT 10SM OVC080 09/00 A2977 RMK AO2 SLP084 T00890000
KFOE 
26nm SE 
181553Z 21010KT 10SM OVC075 08/00 A2977 RMK AO2 SLP086 T00830000
KMHK 
30nm W 
181552Z 27008KT 10SM BKN080 OVC095 13/M01 A2977 RMK AO2 SLP084 T01281006
KFRI 
35nm W 
181556Z 27008KT 10SM OVC070 12/M01 A2977 RMK AO2A SLP083 T01211011
KLWC 
41nm E 
181552Z AUTO 24004KT 10SM OVC085 08/01 A2978 RMK AO2 SLP089 T00830006
TAF
KTOP 
22nm SE 
181120Z 1812/1912 18006KT P6SM BKN090 FM181500 22010KT P6SM SCT090 FM181900 28010KT P6SM BKN060 FM182200 29006KT P6SM SKC
KFOE 
26nm SE 
181120Z 1812/1912 18007KT P6SM BKN090 FM181500 22011KT P6SM SCT090 FM181900 28011KT P6SM BKN060 FM182200 29006KT P6SM SKC
NOTAMs
Click for the latest NOTAMs
NOTAMs are issued by the DoD/FAA and will open in a separate window not controlled by AirNav.

 

 
 

Would you like to see your business listed on this page?

 If your business provides an interesting product or service to pilots, flight crews, aircraft, or users of the JMJ Landing Airport, you should consider listing it here.  To start the listing process, click on the button below
 
Add a business
 

Other Pages about JMJ Landing Airport

Update a link
 
Copyright © AirNav, LLC. All rights reserved. Privacy Policy  Contact